Time;durP1;ratioP1;P1;durP2;ratioP2;P2;SDS_P1;SDS_P2;PMS_P1;PMS_P2;Temp;Humidity;BMP_temperature;BMP_pressure;BME280_temperature;BME280_humidity;BME280_pressure;Samples;Min_cycle;Max_cycle;Signal;HPM_P1;HPM_P2
2022/08/11 00:01:24;;;;;;;11.30;7.05;;;18.60;99.90;;;;;;4948155;28;20450;-72
2022/08/11 00:03:54;;;;;;;13.43;7.80;;;18.60;99.90;;;;;;4963795;28;20816;-74
2022/08/11 00:06:26;;;;;;;14.95;8.05;;;18.60;99.90;;;;;;4952509;29;20524;-75
2022/08/11 00:08:53;;;;;;;11.02;7.47;;;18.50;99.90;;;;;;4952730;28;20031;-75
2022/08/11 00:11:21;;;;;;;16.35;8.32;;;18.50;99.90;;;;;;4952540;28;20082;-71
2022/08/11 00:13:49;;;;;;;12.57;7.53;;;18.50;99.90;;;;;;4952901;28;20027;-73
2022/08/11 00:16:19;;;;;;;11.90;8.18;;;18.50;99.90;;;;;;4949339;29;20046;-75
2022/08/11 00:18:52;;;;;;;13.43;9.18;;;18.50;99.90;;;;;;4952968;28;20039;-74
2022/08/11 00:21:20;;;;;;;13.13;7.65;;;18.40;99.90;;;;;;4952834;28;20019;-73
2022/08/11 00:23:53;;;;;;;13.63;9.07;;;18.50;99.90;;;;;;4952609;28;20019;-74
2022/08/11 00:26:21;;;;;;;14.27;8.55;;;18.50;99.90;;;;;;4952794;28;20090;-74
2022/08/11 00:28:47;;;;;;;14.00;7.82;;;18.40;99.90;;;;;;4952734;28;20098;-71
2022/08/11 00:31:30;;;;;;;13.23;8.93;;;18.40;99.90;;;;;;4952835;28;20477;-75
2022/08/11 00:33:58;;;;;;;11.95;7.93;;;18.40;99.90;;;;;;4950068;28;20385;-71
2022/08/11 00:36:37;;;;;;;13.75;7.85;;;18.40;99.90;;;;;;4948977;29;20023;-74
2022/08/11 00:39:05;;;;;;;15.85;9.07;;;18.40;99.90;;;;;;4950178;29;20051;-75
2022/08/11 00:41:58;;;;;;;14.95;8.43;;;18.40;99.90;;;;;;4952767;29;20024;-75
2022/08/11 00:44:49;;;;;;;11.27;7.70;;;18.40;99.90;;;;;;4950683;29;20497;-74
2022/08/11 00:47:34;;;;;;;17.15;8.75;;;18.30;99.90;;;;;;4949349;29;20039;-72
2022/08/11 00:50:33;;;;;;;14.45;9.07;;;18.30;99.90;;;;;;4984918;28;20027;-75
2022/08/11 00:53:25;;;;;;;14.00;8.85;;;18.30;99.90;;;;;;4951278;28;20039;-76
2022/08/11 00:56:13;;;;;;;12.95;7.97;;;18.30;99.90;;;;;;4955052;28;20019;-75
2022/08/11 00:59:09;;;;;;;13.35;8.45;;;18.20;99.90;;;;;;4952866;29;20393;-75
2022/08/11 01:01:48;;;;;;;13.07;7.82;;;18.20;99.90;;;;;;4955319;28;20023;-75
2022/08/11 01:04:49;;;;;;;13.70;8.13;;;18.20;99.90;;;;;;4955847;28;21281;-72
2022/08/11 01:07:44;;;;;;;14.30;8.52;;;18.10;99.90;;;;;;4954977;29;20027;-75
2022/08/11 01:10:26;;;;;;;14.32;8.02;;;18.20;99.90;;;;;;4953272;28;20046;-66
2022/08/11 01:13:04;;;;;;;;;;;18.10;99.90;;;;;;4955774;28;20030;-70
2022/08/11 01:16:05;;;;;;;12.50;8.00;;;18.10;99.90;;;;;;4955479;28;20345;-74
2022/08/11 01:19:16;;;;;;;17.05;8.38;;;18.10;99.90;;;;;;4953116;28;20035;-75
2022/08/11 01:22:14;;;;;;;14.43;8.40;;;18.10;99.90;;;;;;4971926;28;20035;-72
2022/08/11 01:25:29;;;;;;;12.55;7.32;;;18.20;99.90;;;;;;4971596;28;20137;-74
2022/08/11 01:28:32;;;;;;;13.27;8.70;;;18.20;99.90;;;;;;4972041;28;20126;-72
2022/08/11 01:30:58;;;;;;;;;;;18.20;99.90;;;;;;4972318;28;20553;-69
2022/08/11 01:33:45;;;;;;;12.23;7.82;;;18.20;99.90;;;;;;4971642;28;19948;-76
2022/08/11 01:36:23;;;;;;;14.38;7.78;;;18.10;99.90;;;;;;4971595;28;20038;-74
2022/08/11 01:39:14;;;;;;;17.15;8.38;;;18.10;99.90;;;;;;4971587;28;20053;-76
2022/08/11 01:45:15;;;;;;;14.65;8.57;;;18.20;99.90;;;;;;4968675;28;20047;-75
2022/08/11 01:47:54;;;;;;;12.50;7.82;;;18.10;99.90;;;;;;4971730;28;20628;-73
2022/08/11 01:50:47;;;;;;;14.75;8.93;;;18.00;99.90;;;;;;4971801;28;20038;-76
2022/08/11 01:53:34;;;;;;;14.77;8.60;;;18.00;99.90;;;;;;4971209;28;20039;-73
2022/08/11 01:56:26;;;;;;;15.52;8.95;;;18.00;99.90;;;;;;4971497;28;20037;-75
2022/08/11 01:59:09;;;;;;;16.67;9.80;;;17.90;99.90;;;;;;4953628;28;20168;-66
2022/08/11 02:01:35;;;;;;;13.27;8.32;;;18.00;99.90;;;;;;4950422;28;20079;-76
2022/08/11 02:04:12;;;;;;;13.77;8.43;;;17.90;99.90;;;;;;4956627;28;20055;-75
2022/08/11 02:07:06;;;;;;;14.13;8.13;;;17.90;99.90;;;;;;4956602;28;20158;-76
2022/08/11 02:09:57;;;;;;;14.80;8.73;;;17.90;99.90;;;;;;4961596;28;20188;-76
2022/08/11 02:12:40;;;;;;;16.70;8.80;;;17.90;99.90;;;;;;4943054;29;20034;-76
2022/08/11 02:15:35;;;;;;;16.50;9.73;;;17.90;99.90;;;;;;4955479;28;20031;-76
2022/08/11 02:18:07;;;;;;;13.00;8.48;;;17.80;99.90;;;;;;4933843;29;20130;-75
2022/08/11 02:23:53;;;;;;;12.23;7.95;;;17.70;99.90;;;;;;4872034;29;20045;-76
2022/08/11 02:26:43;;;;;;;14.57;8.75;;;17.80;99.90;;;;;;4859627;29;20051;-75
2022/08/11 02:29:20;;;;;;;14.35;8.35;;;17.80;99.90;;;;;;4859303;29;20070;-75
2022/08/11 02:34:55;;;;;;;11.50;7.32;;;17.80;99.90;;;;;;4862278;29;20076;-75
2022/08/11 02:37:33;;;;;;;11.60;8.27;;;17.80;99.90;;;;;;4858713;29;20069;-75
2022/08/11 02:40:02;;;;;;;12.63;8.40;;;17.80;99.90;;;;;;4858741;29;20150;-75
2022/08/11 02:42:44;;;;;;;12.50;7.82;;;17.70;99.90;;;;;;4858258;29;20116;-75
2022/08/11 02:45:10;;;;;;;15.32;7.97;;;17.80;99.90;;;;;;4858486;29;20057;-76
2022/08/11 02:51:12;;;;;;;16.00;8.60;;;17.70;99.90;;;;;;4857948;29;20045;-75
2022/08/11 02:54:02;;;;;;;11.20;7.68;;;17.70;99.90;;;;;;4857341;29;20049;-76
2022/08/11 02:56:50;;;;;;;16.45;8.65;;;17.60;99.90;;;;;;4902257;29;20028;-76
2022/08/11 02:59:55;;;;;;;15.25;8.52;;;17.60;99.90;;;;;;4899467;29;20108;-71
2022/08/11 03:02:24;;;;;;;12.25;8.05;;;17.50;99.90;;;;;;4924259;29;20032;-77
2022/08/11 03:05:21;;;;;;;14.68;9.40;;;17.50;99.90;;;;;;4931739;29;20035;-72
2022/08/11 03:08:01;;;;;;;15.32;9.35;;;17.40;99.90;;;;;;4925257;29;20082;-76
2022/08/11 03:16:43;;;;;;;15.30;8.73;;;17.40;99.90;;;;;;4932686;29;20398;-77
2022/08/11 03:16:50;;;;;;;14.02;8.40;;;17.30;99.90;;;;;;4932751;29;20118;-74
2022/08/11 03:19:35;;;;;;;18.42;9.23;;;17.20;99.90;;;;;;4932999;28;20066;-77
2022/08/11 03:22:24;;;;;;;12.68;7.93;;;17.20;99.90;;;;;;4932997;29;20038;-76
2022/08/11 03:24:56;;;;;;;13.75;8.43;;;17.10;99.90;;;;;;4948110;28;20451;-76
2022/08/11 03:27:36;;;;;;;18.53;9.37;;;17.10;99.90;;;;;;4944273;28;20177;-75
2022/08/11 03:30:15;;;;;;;16.60;9.00;;;17.10;99.90;;;;;;4934537;29;20032;-76
2022/08/11 03:34:00;;;;;;;14.43;9.23;;;17.00;99.90;;;;;;4932804;29;20494;-77
2022/08/11 03:35:42;;;;;;;16.45;8.32;;;17.00;99.90;;;;;;4936775;29;20039;-76
2022/08/11 03:38:13;;;;;;;14.05;8.35;;;17.00;99.90;;;;;;4933749;29;20058;-77
2022/08/11 03:43:47;;;;;;;20.02;8.63;;;17.00;99.90;;;;;;4961127;28;20671;-74
2022/08/11 03:46:44;;;;;;;16.60;8.82;;;17.00;99.90;;;;;;4955262;28;20043;-76
2022/08/11 03:49:21;;;;;;;15.63;8.73;;;16.90;99.90;;;;;;4954476;28;20426;-76
2022/08/11 03:52:11;;;;;;;13.05;8.10;;;17.20;99.90;;;;;;4959365;28;20027;-74
2022/08/11 03:55:11;;;;;;;14.77;8.70;;;17.60;99.90;;;;;;4955199;28;20024;-76
2022/08/11 03:57:54;;;;;;;13.38;7.70;;;18.00;99.90;;;;;;4957771;28;20035;-75
2022/08/11 04:00:48;;;;;;;13.07;7.65;;;18.30;99.90;;;;;;4961966;28;20398;-74
2022/08/11 04:03:26;;;;;;;10.52;6.72;;;19.00;99.90;;;;;;4952637;28;20042;-75
2022/08/11 04:06:30;;;;;;;10.43;6.63;;;19.60;99.90;;;;;;4953121;28;20062;-62
2022/08/11 04:09:20;;;;;;;8.50;6.25;;;20.30;99.90;;;;;;4952853;28;20470;-72
2022/08/11 04:12:41;;;;;;;13.02;7.18;;;20.50;99.90;;;;;;4953857;28;20024;-73
2022/08/11 04:18:19;;;;;;;11.88;6.75;;;20.60;99.90;;;;;;4951369;28;20043;-72
2022/08/11 04:21:15;;;;;;;10.13;6.30;;;20.90;99.90;;;;;;4951451;29;20046;-74
2022/08/11 04:24:05;;;;;;;10.73;6.55;;;20.90;99.90;;;;;;4950153;29;20031;-73
2022/08/11 04:26:36;;;;;;;10.15;6.13;;;21.30;99.90;;;;;;4950976;29;20032;-73
2022/08/11 04:29:24;;;;;;;12.75;7.55;;;22.30;99.90;;;;;;4951015;28;20130;-74
2022/08/11 04:32:08;;;;;;;13.13;7.20;;;23.20;99.90;;;;;;4954439;29;20074;-75
2022/08/11 04:34:35;;;;;;;14.25;6.40;;;23.20;99.90;;;;;;4941448;29;20031;-75
2022/08/11 04:40:43;;;;;;;12.63;6.43;;;23.50;99.90;;;;;;4954661;29;20625;-75
2022/08/11 04:43:47;;;;;;;12.02;6.53;;;24.00;99.90;;;;;;4863110;29;20092;-74
2022/08/11 04:46:13;;;;;;;15.57;6.22;;;24.40;99.90;;;;;;4823138;29;20050;-75
2022/08/11 05:01:41;;;;;;;;;;;25.90;95.40;;;;;;4812396;29;20085;-74
2022/08/11 05:07:51;;;;;;;12.23;5.32;;;25.90;95.30;;;;;;4822896;29;20498;-73
2022/08/11 05:10:22;;;;;;;8.18;5.15;;;25.80;96.30;;;;;;4823495;29;20083;-75
2022/08/11 05:12:55;;;;;;;12.00;5.20;;;24.50;97.90;;;;;;4825396;29;20038;-76
2022/08/11 05:35:46;;;;;;;9.00;5.13;;;21.50;99.90;;;;;;4956140;29;20031;-73
2022/08/11 05:58:00;;;;;;;9.57;5.85;;;21.80;99.90;;;;;;4954662;28;20508;-74
2022/08/11 06:00:27;;;;;;;9.85;5.53;;;21.90;99.90;;;;;;4955354;28;20094;-75
2022/08/11 06:03:00;;;;;;;9.45;5.32;;;21.60;99.90;;;;;;4957087;28;20031;-72
2022/08/11 06:05:43;;;;;;;10.32;4.82;;;21.80;99.90;;;;;;4960771;28;20038;-73
2022/08/11 06:08:11;;;;;;;9.35;4.80;;;21.90;99.90;;;;;;4957406;28;20110;-70
2022/08/11 06:10:41;;;;;;;8.60;5.30;;;21.90;99.90;;;;;;4955253;28;20019;-72
2022/08/11 06:13:09;;;;;;;9.35;5.22;;;22.00;99.90;;;;;;4955187;29;20513;-73
2022/08/11 06:15:47;;;;;;;9.15;5.20;;;21.90;99.90;;;;;;4955521;28;20026;-73
2022/08/11 06:18:14;;;;;;;6.65;4.15;;;22.20;99.90;;;;;;4965577;28;20519;-72
2022/08/11 06:20:50;;;;;;;9.32;4.25;;;22.40;99.90;;;;;;4956015;28;20024;-75
2022/08/11 06:23:18;;;;;;;10.43;5.47;;;22.60;99.90;;;;;;4951950;28;20040;-63
2022/08/11 06:25:44;;;;;;;7.57;4.40;;;22.60;99.90;;;;;;4953624;28;20031;-63
2022/08/11 06:28:12;;;;;;;9.95;4.53;;;22.80;99.90;;;;;;4954638;29;20490;-73
2022/08/11 06:30:42;;;;;;;8.80;4.40;;;23.10;99.90;;;;;;4955209;28;20106;-75
2022/08/11 06:33:29;;;;;;;12.10;5.13;;;23.30;99.90;;;;;;4955039;28;20027;-74
2022/08/11 06:36:09;;;;;;;8.27;4.57;;;23.50;99.90;;;;;;4955235;28;20038;-73
2022/08/11 06:38:50;;;;;;;8.77;3.88;;;23.40;99.30;;;;;;4954738;28;20121;-77
2022/08/11 06:41:33;;;;;;;8.20;4.30;;;23.50;99.90;;;;;;4954681;28;20054;-73
2022/08/11 06:44:11;;;;;;;11.35;3.83;;;23.50;99.90;;;;;;4953728;28;20110;-75
2022/08/11 06:46:50;;;;;;;7.68;4.20;;;23.70;99.90;;;;;;4954516;28;20023;-74
2022/08/11 06:52:12;;;;;;;6.78;3.78;;;23.60;99.90;;;;;;4952954;28;20114;-75
2022/08/11 06:54:48;;;;;;;7.20;4.10;;;23.60;99.90;;;;;;4953076;28;20654;-75
2022/08/11 07:02:53;;;;;;;8.77;4.10;;;24.00;99.40;;;;;;4953642;28;20031;-74
2022/08/11 07:05:28;;;;;;;7.57;3.92;;;24.10;98.20;;;;;;4952827;29;20496;-75
2022/08/11 07:16:44;;;;;;;7.40;4.25;;;24.90;95.30;;;;;;4951720;29;20035;-75
2022/08/11 07:30:30;;;;;;;8.63;3.65;;;25.60;92.70;;;;;;4956312;28;20042;-74
2022/08/11 07:32:59;;;;;;;7.63;4.13;;;25.40;90.70;;;;;;4952966;28;20085;-77
2022/08/11 07:35:35;;;;;;;9.18;3.92;;;25.80;91.70;;;;;;4952668;28;20031;-76
2022/08/11 07:38:15;;;;;;;8.35;4.03;;;25.80;87.90;;;;;;4941417;29;20097;-77
2022/08/11 07:40:45;;;;;;;5.95;3.65;;;25.80;90.10;;;;;;4952806;28;20385;-75
2022/08/11 07:43:12;;;;;;;7.30;3.90;;;25.90;90.50;;;;;;4952411;28;20031;-65
2022/08/11 07:54:15;;;;;;;5.90;3.33;;;26.10;84.80;;;;;;4968072;28;20026;-72
2022/08/11 07:56:41;;;;;;;7.63;3.28;;;26.10;85.70;;;;;;4970336;28;20374;-73
2022/08/11 08:18:27;;;;;;;8.93;3.60;;;26.60;81.90;;;;;;4972847;28;20535;-75
2022/08/11 08:20:55;;;;;;;7.00;2.90;;;27.10;82.30;;;;;;4972853;28;20034;-73
2022/08/11 08:23:34;;;;;;;7.00;3.25;;;27.30;78.30;;;;;;4961010;28;20051;-74
2022/08/11 08:26:04;;;;;;;5.65;3.22;;;27.30;76.50;;;;;;4955838;28;20039;-74
2022/08/11 08:28:32;;;;;;;5.88;3.15;;;27.00;77.30;;;;;;4956408;28;20497;-73
2022/08/11 08:30:59;;;;;;;4.95;3.33;;;27.10;77.70;;;;;;4956621;28;20599;-73
2022/08/11 08:33:28;;;;;;;12.45;3.72;;;27.20;76.30;;;;;;4956677;28;20388;-70
2022/08/11 08:36:19;;;;;;;7.38;3.20;;;27.50;75.60;;;;;;4956304;28;20106;-75
2022/08/11 08:38:53;;;;;;;5.82;3.17;;;27.40;72.80;;;;;;4955965;29;20433;-72
2022/08/11 08:41:26;;;;;;;6.35;3.05;;;27.30;71.60;;;;;;4956471;28;20058;-73
2022/08/11 08:44:01;;;;;;;7.22;3.00;;;27.20;71.00;;;;;;4956527;28;20070;-74
2022/08/11 08:46:35;;;;;;;4.93;3.22;;;27.30;73.10;;;;;;4957585;28;20458;-67
2022/08/11 08:49:03;;;;;;;4.90;2.95;;;27.20;72.30;;;;;;4956016;28;20028;-74
2022/08/11 08:51:36;;;;;;;6.95;2.65;;;27.60;71.10;;;;;;4956452;28;20023;-74
2022/08/11 08:54:29;;;;;;;4.75;2.78;;;27.40;71.10;;;;;;4956119;28;20034;-74
2022/08/11 08:56:55;;;;;;;5.65;2.90;;;27.60;71.90;;;;;;4955455;28;20031;-73
2022/08/11 08:59:24;;;;;;;4.63;2.90;;;27.90;71.90;;;;;;4956090;28;20039;-74
2022/08/11 09:01:58;;;;;;;4.07;2.80;;;28.20;71.80;;;;;;4955602;28;20497;-75
2022/08/11 09:04:25;;;;;;;8.43;2.70;;;28.30;71.40;;;;;;4951164;29;20038;-75
2022/08/11 09:06:52;;;;;;;5.60;3.03;;;28.00;69.60;;;;;;4955636;28;20525;-75
2022/08/11 09:09:21;;;;;;;5.95;2.78;;;27.60;69.40;;;;;;4955581;28;20031;-73
2022/08/11 09:11:53;;;;;;;7.05;2.63;;;27.50;68.90;;;;;;4954249;28;20378;-75
2022/08/11 09:14:21;;;;;;;5.25;3.10;;;27.60;69.50;;;;;;4953832;28;20027;-74
2022/08/11 09:16:49;;;;;;;6.05;3.53;;;27.70;69.10;;;;;;4954230;28;20497;-74
2022/08/11 09:19:18;;;;;;;7.97;2.80;;;28.00;70.60;;;;;;4953627;28;20043;-74
2022/08/11 09:26:58;;;;;;;7.15;2.22;;;28.00;67.70;;;;;;4954210;28;20030;-73
2022/08/11 09:27:19;;;;;;;6.22;2.85;;;28.20;68.30;;;;;;4953908;28;20263;-76
2022/08/11 09:29:46;;;;;;;4.05;2.75;;;28.30;68.80;;;;;;4956825;28;20032;-66
2022/08/11 09:32:13;;;;;;;6.03;2.65;;;28.30;69.10;;;;;;4956201;28;20070;-75
2022/08/11 09:34:40;;;;;;;6.68;2.40;;;28.30;70.10;;;;;;4954504;28;20031;-75
2022/08/11 09:45:24;;;;;;;4.15;2.63;;;28.30;66.70;;;;;;4955088;29;20055;-77
2022/08/11 09:47:51;;;;;;;4.93;2.65;;;28.00;68.50;;;;;;4955085;28;20445;-75
2022/08/11 09:50:17;;;;;;;5.13;2.60;;;28.20;65.60;;;;;;4954459;28;20205;-70
2022/08/11 09:52:47;;;;;;;3.25;2.00;;;28.30;66.90;;;;;;4953678;28;20016;-77
2022/08/11 09:55:14;;;;;;;3.72;2.42;;;28.40;65.60;;;;;;4954722;28;20554;-75
2022/08/11 10:00:39;;;;;;;3.58;2.47;;;28.50;64.60;;;;;;4944241;29;20050;-74
2022/08/11 10:03:25;;;;;;;2.78;1.73;;;28.40;65.50;;;;;;4954722;28;20470;-75
2022/08/11 10:08:50;;;;;;;2.38;1.92;;;28.10;67.40;;;;;;4954328;28;20466;-77
2022/08/11 10:11:20;;;;;;;5.13;2.40;;;28.10;64.30;;;;;;4954141;28;20073;-76
2022/08/11 10:16:36;;;;;;;4.82;2.28;;;28.70;65.20;;;;;;4954895;28;20130;-74
2022/08/11 10:19:04;;;;;;;5.78;2.38;;;28.70;65.70;;;;;;4954918;28;20039;-74
2022/08/11 10:26:49;;;;;;;3.08;2.60;;;;;;;;;;4954399;28;20034;-76
2022/08/11 10:27:19;;;;;;;5.85;2.38;;;;;;;;;;4953259;28;20026;-74
2022/08/11 10:35:16;;;;;;;5.13;2.45;;;28.20;66.50;;;;;;4954279;29;20035;-76
2022/08/11 10:37:45;;;;;;;2.80;2.17;;;28.40;67.10;;;;;;4953885;28;20046;-75
2022/08/11 10:40:21;;;;;;;6.28;2.20;;;28.50;70.10;;;;;;4954015;28;20039;-76
2022/08/11 10:43:02;;;;;;;4.30;2.13;;;29.00;67.70;;;;;;4953750;28;20050;-76
2022/08/11 10:48:18;;;;;;;2.45;2.10;;;28.50;66.50;;;;;;4953092;29;20031;-76
2022/08/11 10:59:07;;;;;;;8.00;2.90;;;28.90;67.00;;;;;;4953637;29;20031;-76
2022/08/11 11:01:38;;;;;;;2.90;2.33;;;29.20;67.50;;;;;;4953718;28;20023;-76
2022/08/11 11:04:10;;;;;;;3.50;1.98;;;;;;;;;;4953663;28;20042;-77
2022/08/11 11:06:43;;;;;;;;;;;29.50;66.30;;;;;;4953635;28;20023;-77
2022/08/11 11:09:17;;;;;;;6.07;2.53;;;29.40;66.60;;;;;;4953491;28;20305;-77
2022/08/11 11:17:55;;;;;;;2.70;2.00;;;28.90;67.10;;;;;;4953197;28;20035;-77
2022/08/11 11:20:34;;;;;;;4.85;2.78;;;29.30;66.50;;;;;;4953970;28;20056;-77
2022/08/11 11:23:37;;;;;;;2.85;2.17;;;29.40;67.50;;;;;;4954367;28;20042;-77
2022/08/11 11:26:08;;;;;;;2.25;1.80;;;29.40;66.70;;;;;;4932050;29;20074;-77
2022/08/11 11:29:04;;;;;;;3.97;2.17;;;29.70;67.80;;;;;;4932019;29;20074;-75
2022/08/11 11:31:43;;;;;;;5.47;2.58;;;;;;;;;;4932112;29;20048;-77
2022/08/11 11:34:15;;;;;;;3.67;2.20;;;;;;;;;;4932061;29;20035;-77
2022/08/11 11:36:46;;;;;;;4.95;2.28;;;30.20;63.60;;;;;;4931508;29;20036;-77
2022/08/11 11:39:12;;;;;;;2.50;1.92;;;;;;;;;;4931000;29;20103;-77
2022/08/11 11:41:39;;;;;;;2.08;1.75;;;30.30;63.50;;;;;;4931958;29;20296;-77
2022/08/11 11:44:05;;;;;;;2.65;1.92;;;29.90;64.50;;;;;;4931146;29;20062;-77
2022/08/11 11:46:32;;;;;;;2.25;1.90;;;29.70;65.50;;;;;;4932001;29;20032;-76
2022/08/11 11:49:05;;;;;;;2.05;1.85;;;29.20;63.00;;;;;;4915712;28;20469;-73
2022/08/11 11:51:32;;;;;;;3.55;2.22;;;28.90;63.90;;;;;;4931536;29;20035;-76
2022/08/11 11:54:01;;;;;;;2.90;2.03;;;28.70;63.50;;;;;;4931679;29;20435;-77
2022/08/11 11:56:28;;;;;;;6.25;2.10;;;28.60;62.60;;;;;;4931430;29;20119;-76
2022/08/11 12:01:42;;;;;;;3.55;2.03;;;28.60;63.40;;;;;;4931704;29;20031;-77
2022/08/11 12:04:10;;;;;;;4.13;1.83;;;28.80;62.00;;;;;;4952888;28;20043;-77
2022/08/11 12:06:36;;;;;;;3.13;1.52;;;29.00;61.40;;;;;;4952925;28;20070;-74
2022/08/11 12:09:03;;;;;;;4.97;1.55;;;29.30;61.00;;;;;;4952814;28;20058;-72
2022/08/11 12:14:18;;;;;;;2.60;1.65;;;29.40;61.10;;;;;;4951886;29;20035;-63
2022/08/11 12:16:46;;;;;;;2.03;1.70;;;29.50;61.50;;;;;;4952976;28;20445;-64
2022/08/11 12:19:21;;;;;;;2.58;1.70;;;29.30;60.70;;;;;;4953289;28;20057;-65
2022/08/11 12:27:22;;;;;;;5.78;2.25;;;29.10;61.30;;;;;;4958587;28;20019;-71
2022/08/11 12:29:51;;;;;;;3.10;2.03;;;29.00;61.60;;;;;;4950950;29;20019;-65
2022/08/11 12:32:21;;;;;;;4.30;2.10;;;28.90;61.60;;;;;;4952299;28;20023;-67
2022/08/11 12:34:48;;;;;;;7.65;2.67;;;28.90;61.30;;;;;;4951728;28;20019;-68
2022/08/11 12:37:19;;;;;;;7.82;3.08;;;29.00;62.10;;;;;;4951903;28;20049;-71
2022/08/11 12:45:28;;;;;;;3.75;2.53;;;29.40;62.30;;;;;;4951532;28;19930;-69
2022/08/11 12:54:01;;;;;;;4.25;2.30;;;29.60;60.90;;;;;;4946862;29;20027;-71
2022/08/11 13:04:59;;;;;;;3.65;2.47;;;29.70;61.50;;;;;;4954842;29;20031;-71
2022/08/11 13:07:27;;;;;;;4.15;2.30;;;29.60;61.20;;;;;;4953533;28;20090;-71
2022/08/11 13:09:56;;;;;;;2.53;1.60;;;29.70;60.50;;;;;;4954203;28;20031;-69
2022/08/11 13:15:13;;;;;;;3.50;2.33;;;29.70;61.10;;;;;;4955344;29;20037;-72
2022/08/11 13:17:40;;;;;;;4.07;1.67;;;29.30;60.80;;;;;;4966580;28;20103;-68
2022/08/11 13:20:09;;;;;;;2.55;2.10;;;29.00;60.90;;;;;;4953479;28;20071;-72
2022/08/11 13:22:36;;;;;;;2.33;1.90;;;28.80;60.20;;;;;;4953801;28;20019;-70
2022/08/11 13:25:04;;;;;;;7.03;2.20;;;28.70;60.70;;;;;;4953921;28;20054;-71
2022/08/11 13:27:30;;;;;;;1.98;1.77;;;28.60;62.20;;;;;;4954726;29;20073;-72
2022/08/11 13:32:44;;;;;;;3.17;1.65;;;28.90;62.70;;;;;;4955435;28;20126;-73
2022/08/11 13:35:15;;;;;;;2.70;1.95;;;29.10;61.00;;;;;;4951252;28;20043;-71
2022/08/11 13:37:44;;;;;;;7.13;1.87;;;29.40;61.90;;;;;;4953012;28;20023;-72
2022/08/11 13:40:12;;;;;;;3.78;1.80;;;29.40;60.70;;;;;;4953273;28;20297;-73
2022/08/11 13:42:40;;;;;;;5.75;1.95;;;29.40;62.20;;;;;;4953094;28;20106;-71
2022/08/11 13:45:07;;;;;;;4.68;2.00;;;29.30;60.90;;;;;;4952489;28;20521;-68
2022/08/11 13:47:35;;;;;;;3.45;2.20;;;29.00;60.30;;;;;;4953733;28;20385;-71
2022/08/11 13:50:01;;;;;;;4.00;1.85;;;28.80;60.50;;;;;;4956746;28;20042;-74
2022/08/11 13:52:28;;;;;;;1.40;1.30;;;28.80;60.40;;;;;;4953736;28;20496;-73
2022/08/11 13:54:55;;;;;;;4.35;1.98;;;28.70;60.30;;;;;;4949814;29;20034;-71
2022/08/11 13:57:21;;;;;;;2.53;1.63;;;28.70;62.00;;;;;;4952786;28;20011;-71
2022/08/11 14:00:08;;;;;;;3.97;1.63;;;28.80;60.10;;;;;;4951424;28;20128;-70
2022/08/11 14:02:42;;;;;;;6.10;1.40;;;28.90;59.40;;;;;;4952828;28;20083;-72
2022/08/11 14:05:21;;;;;;;2.38;1.50;;;29.00;60.10;;;;;;4953579;28;20390;-72
2022/08/11 14:07:51;;;;;;;4.20;1.48;;;29.00;60.60;;;;;;4943062;29;20015;-71
2022/08/11 14:10:20;;;;;;;1.40;1.20;;;29.10;62.60;;;;;;4954234;28;20035;-71
2022/08/11 14:15:42;;;;;;;3.03;1.30;;;28.80;60.80;;;;;;4951545;29;20031;-72
2022/08/11 14:18:12;;;;;;;;;;;28.50;60.80;;;;;;4953722;28;20039;-73
2022/08/11 14:23:31;;;;;;;3.28;1.65;;;28.40;61.20;;;;;;4952731;28;20027;-73
2022/08/11 14:28:44;;;;;;;1.75;1.20;;;28.80;61.00;;;;;;4954809;28;20031;-73
2022/08/11 14:31:11;;;;;;;2.55;1.50;;;28.90;61.70;;;;;;4954023;28;20374;-74
2022/08/11 14:33:39;;;;;;;1.55;1.10;;;28.90;60.40;;;;;;4954097;28;20027;-74
2022/08/11 14:36:08;;;;;;;3.65;1.02;;;29.10;60.20;;;;;;4952235;28;20026;-72
2022/08/11 14:38:35;;;;;;;2.45;1.05;;;29.30;59.90;;;;;;4951761;28;20031;-73
2022/08/11 14:49:18;;;;;;;2.65;1.13;;;29.40;60.80;;;;;;4952506;28;20521;-72
2022/08/11 14:51:46;;;;;;;1.08;0.90;;;29.30;60.70;;;;;;4952365;28;20027;-73
2022/08/11 14:56:58;;;;;;;1.27;0.85;;;29.20;58.90;;;;;;4953750;28;20039;-73
2022/08/11 14:59:25;;;;;;;2.55;1.13;;;29.10;58.60;;;;;;4953412;28;20031;-73
2022/08/11 15:04:37;;;;;;;3.72;0.77;;;28.70;58.50;;;;;;4948725;29;20023;-72
2022/08/11 15:07:03;;;;;;;1.25;1.02;;;28.60;62.10;;;;;;4953193;28;20038;-72
2022/08/11 15:09:30;;;;;;;0.90;0.70;;;28.70;62.60;;;;;;4953878;29;20035;-70
2022/08/11 15:12:07;;;;;;;1.15;0.70;;;28.80;58.80;;;;;;4953264;28;20027;-71
2022/08/11 15:17:20;;;;;;;0.90;0.70;;;29.00;59.30;;;;;;4953540;28;20114;-72
2022/08/11 15:25:18;;;;;;;0.77;0.60;;;29.40;58.70;;;;;;4953027;29;20027;-70
2022/08/11 15:39:01;;;;;;;1.42;0.90;;;29.60;59.50;;;;;;4952285;28;20061;-72
2022/08/11 15:47:28;;;;;;;1.98;0.88;;;29.60;59.80;;;;;;4953112;28;20613;-72
2022/08/11 15:49:57;;;;;;;2.78;0.93;;;29.40;58.10;;;;;;4952692;28;20037;-72
2022/08/11 15:52:29;;;;;;;1.00;0.85;;;29.50;57.90;;;;;;4953253;28;20034;-72
2022/08/11 15:54:58;;;;;;;1.15;0.75;;;29.50;59.80;;;;;;4953195;28;20034;-71
2022/08/11 16:05:42;;;;;;;3.03;0.70;;;29.50;60.10;;;;;;4953134;29;20032;-72
2022/08/11 16:08:09;;;;;;;1.02;0.80;;;29.40;58.30;;;;;;4953352;28;20466;-72
2022/08/11 16:10:36;;;;;;;3.60;1.00;;;29.30;61.90;;;;;;4952989;28;20028;-72
2022/08/11 16:18:21;;;;;;;3.35;0.50;;;29.30;60.70;;;;;;4952788;28;20038;-71
2022/08/11 16:20:50;;;;;;;2.20;0.75;;;29.30;60.40;;;;;;4953010;28;20110;-73
2022/08/11 16:23:17;;;;;;;1.65;0.88;;;29.20;58.30;;;;;;4951595;29;20370;-72
2022/08/11 16:25:45;;;;;;;5.68;2.70;;;29.10;59.80;;;;;;4955732;28;20027;-72
2022/08/11 16:28:13;;;;;;;8.02;3.10;;;29.00;58.50;;;;;;4956891;28;20028;-72
2022/08/11 16:30:42;;;;;;;1.73;1.20;;;28.90;59.60;;;;;;4956578;28;20015;-72
2022/08/11 16:33:10;;;;;;;3.22;2.15;;;28.80;59.90;;;;;;4956779;28;20023;-72
2022/08/11 16:38:34;;;;;;;5.18;2.88;;;28.70;60.40;;;;;;4954117;28;20054;-70
2022/08/11 16:41:12;;;;;;;2.67;1.67;;;28.70;59.20;;;;;;4956501;28;20043;-73
2022/08/11 16:49:25;;;;;;;0.93;0.68;;;28.50;60.70;;;;;;4955100;29;20142;-71
2022/08/11 16:51:52;;;;;;;3.15;1.05;;;28.30;61.30;;;;;;4954971;28;20035;-71
2022/08/11 16:54:18;;;;;;;2.75;0.70;;;28.30;61.20;;;;;;4955535;28;20031;-71
2022/08/11 16:56:52;;;;;;;3.72;1.23;;;29.00;80.80;;;;;;4955191;28;20045;-73
2022/08/11 16:59:34;;;;;;;1.15;0.75;;;28.10;63.10;;;;;;4955437;28;20442;-72
2022/08/11 17:13:07;;;;;;;3.10;0.65;;;;;;;;;;4956298;28;20481;-71
2022/08/11 17:14:08;;;;;;;2.33;1.08;;;27.60;60.60;;;;;;4954352;28;20031;-71
2022/08/11 17:16:38;;;;;;;7.28;1.10;;;27.50;61.30;;;;;;4946237;29;20059;-71
2022/08/11 17:19:10;;;;;;;7.20;1.20;;;27.40;61.90;;;;;;4969798;28;20421;-71
2022/08/11 17:24:34;;;;;;;4.30;1.20;;;27.20;62.80;;;;;;4955596;29;20090;-73
2022/08/11 17:27:01;;;;;;;4.85;1.17;;;27.10;63.80;;;;;;4952383;29;20059;-73
2022/08/11 17:30:02;;;;;;;7.90;1.40;;;26.90;62.40;;;;;;4954033;28;20029;-73
2022/08/11 17:35:29;;;;;;;2.15;0.73;;;;;;;;;;4954695;28;20055;-70
2022/08/11 17:37:58;;;;;;;2.55;0.90;;;;;;;;;;4950123;28;20586;-69
2022/08/11 17:40:25;;;;;;;1.55;0.93;;;26.40;62.50;;;;;;4950587;28;20023;-70
2022/08/11 17:48:32;;;;;;;8.20;1.40;;;26.00;63.50;;;;;;4953481;28;20016;-70
2022/08/11 17:51:02;;;;;;;2.78;0.88;;;25.90;64.60;;;;;;4954300;28;20031;-71
2022/08/11 18:01:48;;;;;;;3.15;1.00;;;25.40;63.60;;;;;;4954540;28;20035;-73
2022/08/11 18:04:16;;;;;;;3.67;1.23;;;25.40;63.50;;;;;;4954556;28;20019;-72
2022/08/11 18:06:43;;;;;;;1.48;0.98;;;25.30;65.10;;;;;;4954854;28;20398;-72
